Time;durP1;ratioP1;P1;durP2;ratioP2;P2;SDS_P1;SDS_P2;PMS_P1;PMS_P2;Temp;Humidity;BMP_temperature;BMP_pressure;BME280_temperature;BME280_humidity;BME280_pressure;Samples;Min_cycle;Max_cycle;Signal;HPM_P1;HPM_P2
2022/02/21 00:02:22;;;;;;;10.78;6.03;;;;;;;5.14;65.47;98982.73;1631964;87;21016;-77
2022/02/21 00:04:49;;;;;;;6.30;4.60;;;;;;;5.14;65.66;98973.91;1640985;87;21082;-75
2022/02/21 00:07:16;;;;;;;7.65;5.67;;;;;;;5.13;65.78;98965.11;1629910;87;21537;-80
2022/02/21 00:09:42;;;;;;;7.78;5.17;;;;;;;5.14;66.08;98972.59;1589135;89;21045;-72
2022/02/21 00:12:10;;;;;;;9.73;5.85;;;;;;;5.14;66.09;98965.92;1593138;89;21007;-72
2022/02/21 00:14:37;;;;;;;9.65;5.95;;;;;;;5.15;66.26;98969.70;1580259;89;21042;-75
2022/02/21 00:17:05;;;;;;;12.05;5.90;;;;;;;5.15;66.36;98972.87;1564428;90;20987;-74
2022/02/21 00:19:33;;;;;;;8.50;5.65;;;;;;;5.16;66.55;98970.51;1575950;90;21507;-76
2022/02/21 00:22:00;;;;;;;7.20;6.35;;;;;;;5.15;66.70;98981.69;1549330;90;21672;-77
2022/02/21 00:24:28;;;;;;;6.67;4.50;;;;;;;5.15;66.85;98971.55;1588618;90;21167;-72
2022/02/21 00:26:55;;;;;;;8.95;4.95;;;;;;;5.12;67.14;98975.50;1564148;90;21064;-76
2022/02/21 00:29:22;;;;;;;9.28;6.95;;;;;;;5.11;67.42;98973.06;1585290;90;21071;-78
2022/02/21 00:31:51;;;;;;;9.43;5.65;;;;;;;5.12;67.48;98984.83;1569964;90;21092;-78
2022/02/21 00:34:17;;;;;;;7.25;4.72;;;;;;;5.12;67.51;98984.83;1576815;90;21126;-79
2022/02/21 00:36:45;;;;;;;7.08;5.35;;;;;;;5.12;67.75;98972.84;1602995;89;39089;-83
2022/02/21 00:39:11;;;;;;;6.37;4.60;;;;;;;5.12;67.80;98978.69;1572669;90;21086;-79
2022/02/21 00:41:38;;;;;;;8.05;5.45;;;;;;;5.13;67.79;98978.43;1609496;89;21026;-78
2022/02/21 00:44:05;;;;;;;7.53;4.80;;;;;;;5.12;67.88;98972.84;1609851;89;21074;-80
2022/02/21 00:46:31;;;;;;;9.55;5.75;;;;;;;5.12;68.16;98981.34;1570700;90;21063;-78
2022/02/21 00:48:57;;;;;;;7.25;4.78;;;;;;;5.10;68.14;98962.10;1589162;89;21089;-77
2022/02/21 00:51:24;;;;;;;10.08;6.33;;;;;;;5.09;68.27;98969.28;1564666;89;21100;-76
2022/02/21 00:53:50;;;;;;;7.22;5.20;;;;;;;5.05;68.60;98958.80;1590242;90;21088;-76
2022/02/21 00:56:18;;;;;;;6.10;4.62;;;;;;;5.02;68.82;98951.28;1590343;89;21052;-83
2022/02/21 00:58:46;;;;;;;7.25;5.70;;;;;;;5.00;69.19;98954.69;1569794;90;21633;-86
2022/02/21 01:01:13;;;;;;;11.95;6.20;;;;;;;4.98;69.44;98949.31;1583339;90;21038;-77
2022/02/21 01:03:39;;;;;;;9.18;5.47;;;;;;;4.94;69.65;98958.27;1565986;90;21549;-77
2022/02/21 01:06:08;;;;;;;9.03;5.33;;;;;;;4.90;70.02;98950.97;1571622;90;21136;-75
2022/02/21 01:08:34;;;;;;;6.50;4.85;;;;;;;4.83;70.38;98947.92;1536301;90;21073;-76
2022/02/21 01:11:01;;;;;;;7.33;5.35;;;;;;;4.80;70.69;98947.55;1587698;87;21121;-75
2022/02/21 01:13:28;;;;;;;5.42;4.90;;;;;;;4.77;70.85;98937.37;1625118;88;21171;-82
2022/02/21 01:15:54;;;;;;;6.62;5.40;;;;;;;4.75;71.20;98948.76;1621709;87;21075;-75
2022/02/21 01:18:21;;;;;;;11.63;5.37;;;;;;;4.73;71.10;98945.53;1618475;87;20961;-73
2022/02/21 01:20:48;;;;;;;6.62;4.92;;;;;;;4.72;71.37;98934.06;1616634;87;21564;-72
2022/02/21 01:23:16;;;;;;;6.12;4.92;;;;;;;4.73;71.45;98933.55;1609980;88;21064;-73
2022/02/21 01:25:42;;;;;;;9.05;5.58;;;;;;;4.71;71.56;98929.77;1610064;87;21127;-74
2022/02/21 01:28:09;;;;;;;6.35;5.03;;;;;;;4.70;71.72;98942.02;1606975;88;21118;-74
2022/02/21 01:30:35;;;;;;;5.42;4.53;;;;;;;4.64;71.87;98939.74;1595220;89;21656;-81
2022/02/21 01:33:01;;;;;;;7.03;5.47;;;;;;;4.62;71.92;98947.13;1611738;87;21058;-79
2022/02/21 01:35:27;;;;;;;11.88;5.08;;;;;;;4.55;72.16;98933.13;1611161;88;21467;-80
2022/02/21 01:37:54;;;;;;;5.58;4.78;;;;;;;4.55;72.16;98933.13;1624677;87;21153;-79
2022/02/21 01:40:21;;;;;;;6.83;5.28;;;;;;;4.54;72.34;98938.16;1638417;87;21007;-77
2022/02/21 01:42:47;;;;;;;8.45;5.50;;;;;;;4.52;72.60;98942.89;1638014;87;21528;-75
2022/02/21 01:45:14;;;;;;;8.55;5.45;;;;;;;4.49;72.70;98954.52;1587476;89;21661;-75
2022/02/21 01:47:40;;;;;;;10.35;5.22;;;;;;;4.46;72.85;98943.02;1614342;88;21028;-86
2022/02/21 01:50:08;;;;;;;7.05;4.72;;;;;;;4.45;73.13;98940.86;1614053;87;21881;-83
2022/02/21 01:52:36;;;;;;;7.12;5.15;;;;;;;4.42;73.49;98931.98;1613188;87;21042;-80
2022/02/21 01:55:05;;;;;;;6.30;4.10;;;;;;;4.39;73.80;98935.93;1587265;89;21291;-76
2022/02/21 01:57:33;;;;;;;6.05;5.12;;;;;;;4.39;73.80;98935.93;1614281;88;20966;-78
2022/02/21 02:00:02;;;;;;;5.90;4.00;;;;;;;4.42;73.97;98933.83;1613943;87;21007;-77
2022/02/21 02:02:30;;;;;;;9.13;5.53;;;;;;;4.42;74.12;98933.83;1617222;87;21523;-74
2022/02/21 02:04:57;;;;;;;10.05;4.97;;;;;;;4.39;74.40;98929.27;1613888;87;21026;-86
2022/02/21 02:07:23;;;;;;;7.80;4.30;;;;;;;4.35;74.62;98928.11;1613748;88;21101;-78
2022/02/21 02:09:51;;;;;;;8.83;5.08;;;;;;;4.34;74.68;98921.16;1613706;89;21562;-80
2022/02/21 02:12:18;;;;;;;5.53;4.62;;;;;;;4.32;74.78;98915.24;1615295;88;21637;-75
2022/02/21 02:14:44;;;;;;;6.12;5.03;;;;;;;4.29;74.96;98919.70;1619086;88;21649;-69
2022/02/21 02:17:13;;;;;;;8.23;5.03;;;;;;;4.26;75.14;98916.69;1613036;89;21097;-73
2022/02/21 02:19:41;;;;;;;7.30;4.85;;;;;;;4.22;75.22;98912.88;1585382;89;21049;-73
2022/02/21 02:22:14;;;;;;;6.62;5.10;;;;;;;4.24;75.41;98921.42;1613234;89;21055;-71
2022/02/21 02:24:42;;;;;;;6.72;4.37;;;;;;;4.28;75.92;98922.06;1622939;88;21083;-70
2022/02/21 02:27:09;;;;;;;10.25;5.00;;;;;;;4.28;75.92;98922.06;1593471;88;22320;-74
2022/02/21 02:29:37;;;;;;;8.15;4.90;;;;;;;4.29;75.84;98930.34;1611045;88;21575;-78
2022/02/21 02:32:05;;;;;;;8.25;5.00;;;;;;;4.31;75.79;98929.61;1610401;89;21110;-77
2022/02/21 02:34:32;;;;;;;7.75;5.87;;;;;;;4.29;75.85;98927.69;1595161;89;21003;-73
2022/02/21 02:36:58;;;;;;;11.97;5.58;;;;;;;4.28;75.85;98916.74;1605671;88;21092;-74
2022/02/21 02:39:26;;;;;;;6.10;4.25;;;;;;;4.32;75.89;98925.89;1605034;89;21023;-73
2022/02/21 02:41:52;;;;;;;6.80;4.72;;;;;;;4.32;75.98;98928.55;1605546;89;21004;-74
2022/02/21 02:44:18;;;;;;;8.73;5.33;;;;;;;4.29;76.03;98924.21;1615940;88;20964;-73
2022/02/21 02:46:45;;;;;;;8.15;5.60;;;;;;;4.26;76.17;98924.16;1590597;89;21607;-74
2022/02/21 02:49:11;;;;;;;5.47;4.40;;;;;;;4.24;76.23;98928.89;1589298;89;21118;-80
2022/02/21 02:51:38;;;;;;;9.98;7.10;;;;;;;4.24;76.30;98928.08;1589354;89;21120;-81
2022/02/21 02:54:06;;;;;;;12.05;8.15;;;;;;;4.20;76.33;98928.23;1613413;88;21049;-84
2022/02/21 02:56:37;;;;;;;14.00;7.08;;;;;;;4.11;76.62;98917.63;1610989;88;20974;-80
2022/02/21 02:59:04;;;;;;;8.50;6.12;;;;;;;4.11;76.62;98917.63;1616763;88;21047;-80
2022/02/21 03:01:31;;;;;;;8.13;6.35;;;;;;;4.10;76.79;98912.82;1614357;88;21085;-82
2022/02/21 03:03:57;;;;;;;8.78;6.92;;;;;;;4.10;76.84;98911.49;1587381;88;21408;-81
2022/02/21 03:06:24;;;;;;;10.08;7.72;;;;;;;4.11;76.87;98910.47;1588899;89;20975;-86
2022/02/21 03:08:50;;;;;;;16.80;7.67;;;;;;;4.10;76.89;98907.50;1617239;88;20926;-79
2022/02/21 03:11:17;;;;;;;12.30;7.75;;;;;;;4.07;76.90;98901.31;1573575;88;20967;-79
2022/02/21 03:13:43;;;;;;;12.68;7.90;;;;;;;4.03;76.98;98904.66;1623012;88;21064;-89
2022/02/21 03:16:10;;;;;;;9.18;7.05;;;;;;;4.00;77.07;98907.23;1632271;88;21138;-85
2022/02/21 03:18:36;;;;;;;12.45;8.50;;;;;;;3.96;77.17;98903.41;1607304;88;21560;-80
2022/02/21 03:21:02;;;;;;;15.90;8.05;;;;;;;3.90;77.29;98902.98;1614631;88;21130;-81
2022/02/21 03:23:29;;;;;;;13.20;10.40;;;;;;;3.80;77.49;98902.19;1611362;88;21088;-81
2022/02/21 03:25:55;;;;;;;14.30;11.45;;;;;;;3.70;77.34;98891.79;1623297;88;21084;-78
2022/02/21 03:28:21;;;;;;;14.40;11.38;;;;;;;3.56;77.50;98896.98;1631732;87;21989;-80
2022/02/21 03:30:49;;;;;;;16.62;11.15;;;;;;;3.44;77.72;98891.12;1631488;88;21086;-79
2022/02/21 03:33:15;;;;;;;13.78;10.80;;;;;;;3.28;78.24;98884.25;1631792;88;21024;-81
2022/02/21 03:35:42;;;;;;;14.60;10.98;;;;;;;3.15;78.61;98877.26;1631180;88;21019;-82
2022/02/21 03:38:08;;;;;;;14.55;11.68;;;;;;;3.08;78.96;98875.17;1602205;88;21113;-77
2022/02/21 03:40:35;;;;;;;12.65;10.03;;;;;;;2.97;79.26;98871.41;1600201;89;21182;-81
2022/02/21 03:43:03;;;;;;;18.98;12.82;;;;;;;2.89;79.56;98872.22;1604029;88;21095;-81
2022/02/21 03:45:30;;;;;;;12.85;9.88;;;;;;;2.79;80.15;98866.60;1631298;87;21019;-81
2022/02/21 03:47:56;;;;;;;12.82;9.53;;;;;;;2.68;80.68;98868.67;1631191;87;21063;-88
2022/02/21 03:50:23;;;;;;;12.88;8.23;;;;;;;2.64;80.87;98862.45;1631768;88;21008;-83
2022/02/21 03:52:49;;;;;;;13.48;9.30;;;;;;;2.67;81.17;98863.06;1631959;88;21159;-82
2022/02/21 03:55:16;;;;;;;12.28;9.23;;;;;;;2.71;81.26;98867.71;1592867;88;21023;-80
2022/02/21 03:57:42;;;;;;;11.95;9.48;;;;;;;2.71;81.37;98867.71;1607059;89;21630;-80
2022/02/21 04:00:11;;;;;;;14.53;9.50;;;;;;;2.72;81.45;98870.67;1582871;89;21084;-85
2022/02/21 04:02:40;;;;;;;12.20;10.18;;;;;;;2.66;81.52;98859.59;1583264;89;21578;-79
2022/02/21 04:05:07;;;;;;;12.20;9.33;;;;;;;2.67;81.76;98855.09;1594721;89;21254;-81
2022/02/21 04:07:34;;;;;;;10.32;7.95;;;;;;;2.67;81.87;98852.44;1588851;88;21117;-81
2022/02/21 04:10:01;;;;;;;12.20;7.90;;;;;;;2.69;82.06;98845.05;1613351;88;21049;-79
2022/02/21 04:12:29;;;;;;;9.50;7.53;;;;;;;2.70;82.14;98842.70;1616126;88;21239;-81
2022/02/21 04:14:55;;;;;;;16.80;8.05;;;;;;;2.72;82.30;98840.65;1621368;87;21163;-82
2022/02/21 04:17:22;;;;;;;10.85;8.33;;;;;;;2.75;82.39;98837.03;1613247;87;21510;-87
2022/02/21 04:19:48;;;;;;;13.43;10.10;;;;;;;2.77;82.39;98836.31;1624034;87;20926;-80
2022/02/21 04:22:14;;;;;;;12.10;7.83;;;;;;;2.76;82.45;98839.17;1592371;87;21007;-81
2022/02/21 04:24:41;;;;;;;13.95;8.08;;;;;;;2.71;82.69;98841.16;1596746;88;21082;-80
2022/02/21 04:27:08;;;;;;;11.10;7.70;;;;;;;2.70;82.73;98844.03;1614147;89;21040;-81
2022/02/21 04:29:34;;;;;;;11.22;6.90;;;;;;;2.71;82.90;98843.82;1614567;88;21070;-84
2022/02/21 04:32:22;;;;;;;9.70;7.22;;;;;;;2.73;82.98;98843.61;1633055;87;21099;-82
2022/02/21 04:34:49;;;;;;;12.65;8.30;;;;;;;2.75;83.11;98830.91;1625621;87;21022;-81
2022/02/21 04:37:15;;;;;;;10.23;7.05;;;;;;;2.78;83.15;98821.98;1620132;88;21051;-81
2022/02/21 04:39:41;;;;;;;14.07;10.40;;;;;;;2.81;83.13;98814.10;1632218;87;21085;-78
2022/02/21 04:42:08;;;;;;;13.18;7.42;;;;;;;2.82;83.07;98815.73;1638775;86;21232;-79
2022/02/21 04:44:35;;;;;;;11.35;7.15;;;;;;;2.82;83.12;98816.55;1541465;89;21011;-80
2022/02/21 04:47:01;;;;;;;15.18;10.15;;;;;;;2.81;83.11;98821.56;1578918;89;21070;-80
2022/02/21 04:49:29;;;;;;;11.10;7.50;;;;;;;2.80;83.16;98815.12;1553431;91;21059;-79
2022/02/21 04:51:57;;;;;;;9.00;8.00;;;;;;;2.81;83.24;98805.63;1596752;89;21051;-79
2022/02/21 04:54:26;;;;;;;13.65;8.88;;;;;;;2.83;83.31;98801.44;1590493;89;21527;-81
2022/02/21 04:56:52;;;;;;;10.30;8.20;;;;;;;2.84;83.36;98796.39;1566437;89;21038;-80
2022/02/21 04:59:18;;;;;;;11.12;9.40;;;;;;;2.84;83.36;98793.73;1573379;89;21057;-81
2022/02/21 05:01:45;;;;;;;10.93;8.53;;;;;;;2.84;83.41;98793.73;1587813;89;21108;-74
2022/02/21 05:04:12;;;;;;;12.63;10.98;;;;;;;2.80;83.54;98800.53;1584808;89;21100;-83
2022/02/21 05:06:39;;;;;;;10.32;8.78;;;;;;;2.77;83.65;98797.81;1553973;91;21423;-81
2022/02/21 05:09:05;;;;;;;11.05;9.48;;;;;;;2.77;83.70;98801.80;1547914;91;21254;-84
2022/02/21 05:11:31;;;;;;;13.43;10.18;;;;;;;2.78;83.76;98815.34;1568677;90;20992;-84
2022/02/21 05:13:58;;;;;;;11.88;9.55;;;;;;;2.79;83.82;98809.01;1596335;89;21616;-82
2022/02/21 05:16:24;;;;;;;18.80;11.45;;;;;;;2.83;83.80;98806.74;1537427;90;21064;-79
2022/02/21 05:18:51;;;;;;;20.05;13.45;;;;;;;2.86;83.74;98809.76;1579720;90;22096;-83
2022/02/21 05:21:17;;;;;;;19.42;13.80;;;;;;;2.89;83.61;98808.48;1579900;90;21057;-82
2022/02/21 05:23:44;;;;;;;16.55;11.73;;;;;;;2.88;83.55;98806.34;1579802;90;21035;-81
2022/02/21 05:26:11;;;;;;;23.50;12.95;;;;;;;2.86;83.63;98804.96;1579691;90;21558;-80
2022/02/21 05:28:38;;;;;;;19.25;13.43;;;;;;;2.85;83.56;98796.18;1579974;90;21155;-85
2022/02/21 05:31:04;;;;;;;15.48;12.50;;;;;;;2.88;83.54;98798.89;1578007;89;22186;-85
2022/02/21 05:33:32;;;;;;;15.68;12.55;;;;;;;2.92;83.53;98797.44;1575134;90;21688;-81
2022/02/21 05:35:58;;;;;;;15.28;11.30;;;;;;;2.95;83.37;98795.14;1555150;91;21089;-81
2022/02/21 05:38:24;;;;;;;12.95;10.15;;;;;;;2.99;83.29;98790.19;1575714;91;21083;-83
2022/02/21 05:40:50;;;;;;;16.73;12.75;;;;;;;3.02;83.10;98787.11;1575744;91;21097;-83
2022/02/21 05:43:17;;;;;;;12.15;10.28;;;;;;;3.03;82.91;98800.66;1575894;91;21215;-81
2022/02/21 05:45:43;;;;;;;18.55;13.50;;;;;;;3.03;82.84;98790.84;1571907;91;21044;-79
2022/02/21 05:48:10;;;;;;;19.37;13.58;;;;;;;3.05;82.77;98790.64;1550774;91;21577;-81
2022/02/21 05:50:36;;;;;;;19.80;11.68;;;;;;;3.07;82.62;98786.70;1556006;92;21110;-79
2022/02/21 05:53:03;;;;;;;14.50;10.78;;;;;;;3.09;82.57;98789.15;1537098;90;21023;-79
2022/02/21 05:55:29;;;;;;;14.98;11.53;;;;;;;3.14;82.47;98785.82;1573487;90;21052;-80
2022/02/21 05:57:57;;;;;;;17.67;12.25;;;;;;;3.19;82.36;98768.18;1564396;91;21581;-81
2022/02/21 06:00:24;;;;;;;14.95;11.50;;;;;;;3.26;82.15;98781.39;1573063;91;21149;-81
2022/02/21 06:02:51;;;;;;;26.45;18.70;;;;;;;3.30;81.92;98776.72;1588544;90;21034;-82
2022/02/21 06:05:18;;;;;;;18.42;12.68;;;;;;;3.31;81.51;98774.34;1555920;91;21189;-82
2022/02/21 06:07:44;;;;;;;15.50;11.08;;;;;;;3.28;81.30;98773.47;1567966;90;21582;-79
2022/02/21 06:10:11;;;;;;;21.15;14.18;;;;;;;3.30;81.21;98766.61;1577071;91;21063;-77
2022/02/21 06:12:39;;;;;;;18.35;10.55;;;;;;;3.31;81.05;98762.92;1580789;90;21121;-79
2022/02/21 06:15:09;;;;;;;14.93;11.10;;;;;;;3.32;80.80;98771.98;1576821;90;21136;-79
2022/02/21 06:17:35;;;;;;;17.30;12.15;;;;;;;3.32;80.66;98757.88;1580336;90;21173;-80
2022/02/21 06:20:03;;;;;;;21.95;15.35;;;;;;;3.37;80.68;98759.34;1579228;90;21125;-79
2022/02/21 06:22:30;;;;;;;19.07;13.62;;;;;;;3.44;80.42;98758.74;1565865;90;21060;-79
2022/02/21 06:24:56;;;;;;;19.02;11.55;;;;;;;3.47;80.11;98758.28;1559184;91;21119;-83
2022/02/21 06:27:23;;;;;;;15.48;12.90;;;;;;;3.48;79.83;98750.60;1579739;90;21045;-78
2022/02/21 06:29:49;;;;;;;13.80;11.43;;;;;;;3.49;79.71;98753.05;1568331;90;21130;-81
2022/02/21 06:32:16;;;;;;;18.75;12.70;;;;;;;3.51;79.46;98748.81;1599829;89;21476;-80
2022/02/21 06:34:43;;;;;;;20.00;11.83;;;;;;;3.53;79.33;98745.42;1586991;89;21023;-85
2022/02/21 06:37:09;;;;;;;14.63;10.80;;;;;;;3.58;79.24;98742.89;1579898;90;21099;-84
2022/02/21 06:39:36;;;;;;;16.35;13.05;;;;;;;3.61;78.91;98735.77;1605151;89;21050;-83
2022/02/21 06:42:04;;;;;;;19.15;13.70;;;;;;;3.65;78.60;98745.42;1597378;89;21089;-81
2022/02/21 06:44:31;;;;;;;14.53;12.18;;;;;;;3.69;78.32;98728.00;1603672;89;21185;-84
2022/02/21 06:46:57;;;;;;;20.30;12.28;;;;;;;3.70;78.01;98718.97;1604004;88;21596;-82
2022/02/21 06:49:23;;;;;;;15.10;11.83;;;;;;;3.74;77.84;98721.48;1586858;89;20974;-82
2022/02/21 06:51:50;;;;;;;17.62;12.10;;;;;;;3.79;77.55;98721.05;1579892;90;21842;-83
2022/02/21 06:54:18;;;;;;;20.35;15.32;;;;;;;3.82;77.24;98715.81;1604870;89;21661;-83
2022/02/21 06:56:44;;;;;;;16.42;11.03;;;;;;;3.88;77.00;98721.03;1604260;89;21823;-80
2022/02/21 06:59:12;;;;;;;17.17;10.98;;;;;;;3.97;76.82;98716.17;1600339;89;20989;-84
2022/02/21 07:01:39;;;;;;;16.48;9.75;;;;;;;4.08;76.34;98727.83;1604144;89;20964;-83
2022/02/21 07:04:05;;;;;;;15.65;10.50;;;;;;;4.17;75.45;98721.94;1607025;89;21060;-81
2022/02/21 07:06:35;;;;;;;21.45;10.50;;;;;;;4.22;74.51;98716.73;1604487;89;21183;-83
2022/02/21 07:09:03;;;;;;;15.55;10.88;;;;;;;4.28;74.66;98721.64;1600420;89;21341;-80
2022/02/21 07:11:31;;;;;;;16.17;11.33;;;;;;;4.36;74.44;98715.98;1600622;89;21086;-88
2022/02/21 07:13:58;;;;;;;20.62;11.40;;;;;;;4.43;73.85;98715.33;1600621;89;20977;-85
2022/02/21 07:16:26;;;;;;;15.08;9.00;;;;;;;4.49;73.19;98720.23;1584468;89;21543;-89
2022/02/21 07:18:52;;;;;;;13.48;8.83;;;;;;;4.54;72.86;98723.02;1583410;90;21545;-87
2022/02/21 07:21:19;;;;;;;15.58;10.28;;;;;;;4.59;72.06;98703.95;1605292;89;21167;-89
2022/02/21 07:23:45;;;;;;;18.67;10.08;;;;;;;4.63;71.70;98709.09;1585131;89;20908;-86
2022/02/21 07:26:12;;;;;;;13.70;9.20;;;;;;;4.67;71.05;98701.44;1605183;89;21553;-87
2022/02/21 07:28:39;;;;;;;16.35;10.23;;;;;;;4.73;70.94;98697.84;1605333;89;21082;-91
2022/02/21 07:31:09;;;;;;;15.78;9.15;;;;;;;4.79;70.85;98696.38;1604389;89;21110;-85
2022/02/21 07:33:36;;;;;;;12.55;8.10;;;;;;;4.86;70.10;98700.22;1599854;89;21536;-90
2022/02/21 07:36:03;;;;;;;9.93;7.35;;;;;;;4.98;69.31;98693.01;1598595;89;21596;-89
2022/02/21 07:38:30;;;;;;;11.48;8.63;;;;;;;4.98;69.31;98693.01;1598837;89;21069;-86
2022/02/21 07:40:56;;;;;;;15.90;7.12;;;;;;;5.07;68.69;98692.09;1598226;89;22026;-84
2022/02/21 07:43:23;;;;;;;10.55;7.75;;;;;;;5.13;68.07;98702.59;1578239;89;21484;-88
2022/02/21 07:45:50;;;;;;;10.43;7.40;;;;;;;5.20;67.85;98689.95;1573292;91;21258;-82
2022/02/21 07:48:16;;;;;;;11.63;6.87;;;;;;;5.27;67.25;98691.14;1593493;89;21109;-82
2022/02/21 07:50:44;;;;;;;10.98;7.50;;;;;;;5.33;67.10;98692.82;1598160;89;21027;-82
2022/02/21 07:53:10;;;;;;;14.38;6.95;;;;;;;5.40;66.50;98692.68;1598001;89;21621;-82
2022/02/21 07:55:37;;;;;;;10.93;7.55;;;;;;;5.47;65.97;98694.65;1572673;90;21102;-86
2022/02/21 07:58:04;;;;;;;10.78;6.35;;;;;;;5.55;65.81;98691.61;1578264;89;21147;-84
2022/02/21 08:00:30;;;;;;;10.32;7.10;;;;;;;5.61;65.55;98681.31;1573462;91;21062;-89
2022/02/21 08:02:56;;;;;;;11.18;6.60;;;;;;;5.66;64.49;98699.52;1594371;89;21410;-79
2022/02/21 08:05:25;;;;;;;11.45;6.10;;;;;;;5.71;63.90;98684.12;1583429;90;21093;-79
2022/02/21 08:07:52;;;;;;;10.00;5.62;;;;;;;5.76;63.77;98690.86;1581424;90;21084;-89
2022/02/21 08:10:18;;;;;;;11.10;6.10;;;;;;;5.81;63.50;98675.46;1570377;89;21141;-83
2022/02/21 08:12:47;;;;;;;10.25;5.15;;;;;;;5.83;63.11;98686.19;1596774;89;21080;-84
2022/02/21 08:15:13;;;;;;;13.13;7.42;;;;;;;5.88;63.15;98676.15;1595377;89;20992;-85
2022/02/21 08:17:45;;;;;;;7.62;5.90;;;;;;;5.91;62.65;98670.31;1601608;88;21032;-86
2022/02/21 08:20:15;;;;;;;9.73;5.30;;;;;;;5.95;62.29;98656.76;1603574;87;21087;-77
2022/02/21 08:22:42;;;;;;;11.48;6.17;;;;;;;6.01;62.30;98664.60;1570135;89;21035;-81
2022/02/21 08:25:09;;;;;;;8.60;6.78;;;;;;;6.07;62.17;98660.15;1583530;90;21384;-81
2022/02/21 08:27:38;;;;;;;10.25;8.08;;;;;;;6.11;61.18;98647.92;1583724;90;21067;-85
2022/02/21 08:30:06;;;;;;;10.10;6.15;;;;;;;6.16;60.90;98653.33;1583539;90;21560;-85
2022/02/21 08:32:33;;;;;;;8.83;6.62;;;;;;;6.23;61.15;98671.85;1579330;90;21127;-82
2022/02/21 08:34:59;;;;;;;9.50;5.80;;;;;;;6.29;60.95;98658.30;1574349;91;21762;-83
2022/02/21 08:37:25;;;;;;;10.10;5.62;;;;;;;6.36;60.33;98653.61;1578685;90;21040;-82
2022/02/21 08:39:51;;;;;;;11.55;6.62;;;;;;;6.42;59.94;98645.13;1583111;90;21013;-79
2022/02/21 08:42:18;;;;;;;11.85;6.12;;;;;;;6.47;59.35;98655.36;1589670;90;21182;-83
2022/02/21 08:44:44;;;;;;;11.12;5.60;;;;;;;6.55;59.20;98675.47;1578606;90;21121;-80
2022/02/21 08:47:11;;;;;;;8.05;5.87;;;;;;;6.61;58.63;98655.78;1576634;91;23389;-80
2022/02/21 08:49:37;;;;;;;8.43;6.33;;;;;;;6.70;58.58;98650.80;1576520;91;21060;-77
2022/02/21 08:52:05;;;;;;;9.03;6.28;;;;;;;6.78;58.37;98635.66;1576532;91;21089;-79
2022/02/21 08:54:35;;;;;;;10.55;6.28;;;;;;;6.85;58.07;98636.28;1576203;91;21103;-78
2022/02/21 08:56:59;;;;;;;7.05;5.05;;;;;;;6.91;57.73;98644.60;1575887;90;21245;-77
2022/02/21 08:59:25;;;;;;;13.25;6.65;;;;;;;6.94;57.15;98626.75;1575850;91;21098;-79
2022/02/21 09:01:53;;;;;;;9.10;6.12;;;;;;;7.01;57.07;98636.16;1575875;89;21069;-75
2022/02/21 09:04:21;;;;;;;11.70;6.60;;;;;;;7.08;56.86;98641.84;1567891;91;21556;-80
2022/02/21 09:06:48;;;;;;;10.10;6.12;;;;;;;7.12;56.51;98629.58;1576261;91;21091;-77
2022/02/21 09:09:15;;;;;;;13.78;9.45;;;;;;;7.15;56.14;98631.73;1576708;91;21389;-78
2022/02/21 09:11:42;;;;;;;13.15;7.20;;;;;;;7.18;55.95;98645.43;1576684;91;21108;-77
2022/02/21 09:14:08;;;;;;;7.35;5.60;;;;;;;7.24;55.70;98622.22;1582596;90;21082;-77
2022/02/21 09:16:35;;;;;;;9.33;6.08;;;;;;;7.30;55.74;98623.33;1581171;89;21541;-76
2022/02/21 09:19:01;;;;;;;11.65;5.83;;;;;;;7.37;55.71;98607.08;1582818;90;21589;-81
2022/02/21 09:21:27;;;;;;;8.73;5.55;;;;;;;7.42;55.04;98634.68;1580075;90;21115;-81
2022/02/21 09:23:54;;;;;;;8.48;6.03;;;;;;;7.51;54.95;98612.27;1579785;90;21998;-81
2022/02/21 09:26:21;;;;;;;10.53;5.87;;;;;;;7.56;54.64;98600.27;1579102;90;21075;-81
2022/02/21 09:28:47;;;;;;;9.25;5.53;;;;;;;7.62;54.09;98603.27;1581014;89;21647;-78
2022/02/21 09:31:13;;;;;;;6.90;5.37;;;;;;;7.68;53.57;98602.74;1580442;90;21090;-84
2022/02/21 09:33:40;;;;;;;9.00;5.35;;;;;;;7.74;53.75;98596.38;1577865;90;21613;-82
2022/02/21 09:36:07;;;;;;;8.58;4.83;;;;;;;7.78;53.54;98591.58;1577443;90;21161;-84
2022/02/21 09:38:34;;;;;;;11.43;5.70;;;;;;;7.79;53.10;98587.03;1577077;91;21120;-82
2022/02/21 09:41:04;;;;;;;5.60;4.62;;;;;;;7.82;53.36;98577.95;1577640;91;21212;-84
2022/02/21 09:43:30;;;;;;;7.42;5.30;;;;;;;7.83;52.91;98578.23;1578673;90;21140;-85
2022/02/21 09:45:59;;;;;;;10.03;6.60;;;;;;;7.89;52.95;98585.23;1573497;91;21127;-80
2022/02/21 09:48:26;;;;;;;8.93;5.55;;;;;;;7.92;52.64;98574.52;1576853;91;21304;-76
2022/02/21 09:50:58;;;;;;;7.65;5.58;;;;;;;7.96;52.70;98588.22;1577581;91;21095;-79
2022/02/21 09:53:21;;;;;;;9.68;5.75;;;;;;;8.00;52.59;98571.91;1588908;90;21073;-78
2022/02/21 09:55:48;;;;;;;7.28;5.58;;;;;;;8.05;52.32;98579.96;1573434;90;21071;-79
2022/02/21 09:58:14;;;;;;;14.13;6.55;;;;;;;8.07;51.90;98575.94;1575442;90;21103;-78
2022/02/21 10:00:40;;;;;;;10.08;6.55;;;;;;;8.07;51.90;98591.20;1563254;91;21128;-81
2022/02/21 10:03:07;;;;;;;9.38;7.25;;;;;;;8.06;51.75;98562.27;1559232;90;21000;-75
2022/02/21 10:05:33;;;;;;;14.40;7.55;;;;;;;8.09;51.79;98558.28;1557281;91;21573;-77
2022/02/21 10:08:00;;;;;;;17.20;7.03;;;;;;;8.10;51.82;98564.73;1574710;90;21085;-76
2022/02/21 10:10:28;;;;;;;13.22;7.37;;;;;;;8.13;51.79;98552.14;1558421;90;21126;-83
2022/02/21 10:13:03;;;;;;;12.28;7.70;;;;;;;8.16;51.96;98562.85;1576405;90;21525;-79
2022/02/21 10:15:34;;;;;;;12.13;8.18;;;;;;;8.21;51.76;98569.56;1577805;90;21151;-83
2022/02/21 10:18:18;;;;;;;13.98;7.42;;;;;;;8.23;51.64;98553.53;1577516;91;21030;-79
2022/02/21 10:20:58;;;;;;;15.68;8.43;;;;;;;8.26;51.34;98551.66;1553616;92;21591;-79
2022/02/21 10:23:30;;;;;;;9.03;6.50;;;;;;;8.31;51.39;98549.55;1552606;91;21104;-76
2022/02/21 10:26:00;;;;;;;9.28;7.00;;;;;;;8.33;51.13;98563.50;1556549;91;21117;-77
2022/02/21 10:28:35;;;;;;;11.63;6.33;;;;;;;8.29;50.98;98544.98;1577723;90;21106;-76
2022/02/21 10:31:15;;;;;;;20.32;10.13;;;;;;;8.25;50.96;98550.56;1577830;90;21125;-79
2022/02/21 10:34:02;;;;;;;9.08;5.75;;;;;;;8.30;51.27;98535.35;1557386;90;21610;-79
2022/02/21 10:36:38;;;;;;;8.58;6.12;;;;;;;8.34;51.20;98539.67;1578709;90;21168;-82
2022/02/21 10:39:12;;;;;;;7.03;4.62;;;;;;;8.38;50.73;98524.67;1580035;90;21793;-79
2022/02/21 10:41:41;;;;;;;9.48;6.33;;;;;;;8.39;50.47;98544.23;1555989;90;22307;-76
2022/02/21 10:44:23;;;;;;;10.23;7.30;;;;;;;8.40;50.51;98526.54;1579661;89;21023;-79
2022/02/21 10:47:17;;;;;;;10.95;5.92;;;;;;;8.42;50.62;98527.63;1581239;89;20980;-76
2022/02/21 10:49:54;;;;;;;8.13;5.70;;;;;;;8.38;50.49;98511.81;1577985;90;21614;-76
2022/02/21 10:52:30;;;;;;;9.40;5.40;;;;;;;8.39;50.82;98525.48;1579762;90;21894;-75
2022/02/21 10:54:57;;;;;;;12.40;5.95;;;;;;;8.41;50.89;98546.10;1577215;90;21071;-74
2022/02/21 10:57:25;;;;;;;11.38;7.67;;;;;;;8.41;51.05;98532.17;1579753;90;21092;-77
2022/02/21 10:59:52;;;;;;;11.25;6.67;;;;;;;8.43;51.01;98517.99;1584895;90;21521;-86
2022/02/21 11:02:21;;;;;;;8.48;5.58;;;;;;;8.47;50.93;98524.43;1586611;90;21059;-79
2022/02/21 11:04:47;;;;;;;7.90;4.67;;;;;;;8.51;51.02;98511.30;1537185;90;21111;-77
2022/02/21 11:07:14;;;;;;;10.13;6.25;;;;;;;8.52;50.83;98540.52;1577127;90;21063;-77
2022/02/21 11:09:42;;;;;;;10.10;6.75;;;;;;;8.54;51.09;98521.48;1577101;90;21540;-82
2022/02/21 11:12:09;;;;;;;9.10;6.10;;;;;;;8.55;51.21;98510.50;1579616;90;21140;-81
2022/02/21 11:14:35;;;;;;;7.45;4.80;;;;;;;8.60;51.19;98506.50;1579671;90;21063;-82
2022/02/21 11:17:05;;;;;;;6.95;5.30;;;;;;;8.62;51.06;98504.90;1576318;90;21885;-82
2022/02/21 11:19:31;;;;;;;13.20;4.92;;;;;;;8.62;51.12;98500.34;1579221;90;21056;-80
2022/02/21 11:21:58;;;;;;;7.50;5.78;;;;;;;8.60;51.27;98500.33;1577372;88;21075;-82
2022/02/21 11:24:33;;;;;;;10.85;6.37;;;;;;;8.63;51.42;98492.55;1579975;90;21135;-82
2022/02/21 11:27:36;;;;;;;7.85;5.05;;;;;;;8.65;51.19;98503.02;1579949;90;21123;-85
2022/02/21 11:30:10;;;;;;;12.30;4.92;;;;;;;8.62;51.45;98500.34;1578425;90;21320;-84
2022/02/21 11:32:41;;;;;;;6.80;4.87;;;;;;;8.62;51.27;98489.63;1579698;90;21072;-83
2022/02/21 11:35:18;;;;;;;8.13;5.22;;;;;;;8.63;51.49;98489.09;1579759;90;21077;-82
2022/02/21 11:37:46;;;;;;;13.22;7.03;;;;;;;8.61;51.47;98490.69;1579688;90;21104;-83